createdAt,value
2022-11-18T00:01:15.879Z,99665.97
2022-11-18T00:03:43.801Z,99663.34
2022-11-18T00:06:12.548Z,99671.22
2022-11-18T00:08:38.990Z,99680.88
2022-11-18T00:11:11.907Z,99673.13
2022-11-18T00:13:57.857Z,99673.38
2022-11-18T00:16:27.043Z,99680.41
2022-11-18T00:18:53.487Z,99681.44
2022-11-18T00:21:19.889Z,99684.91
2022-11-18T00:23:48.888Z,99693.75
2022-11-18T00:26:15.439Z,99700.69
2022-11-18T00:28:42.464Z,99693.16
2022-11-18T00:31:12.078Z,99702.69
2022-11-18T00:33:39.636Z,99703.66
2022-11-18T00:36:08.660Z,99708.06
2022-11-18T00:38:36.267Z,99710.72
2022-11-18T00:41:10.945Z,99717.72
2022-11-18T00:43:38.262Z,99713.47
2022-11-18T00:46:11.736Z,99717.84
2022-11-18T00:48:39.243Z,99718.94
2022-11-18T00:51:10.537Z,99728.47
2022-11-18T00:53:37.242Z,99726.81
2022-11-18T00:56:03.777Z,99732.31
2022-11-18T00:58:30.192Z,99740.31
2022-11-18T01:00:56.744Z,99736.00
2022-11-18T01:03:24.503Z,99737.78
2022-11-18T01:05:51.813Z,99730.88
2022-11-18T01:08:19.480Z,99730.88
2022-11-18T01:10:47.162Z,99729.19
2022-11-18T01:13:23.613Z,99739.69
2022-11-18T01:15:58.693Z,99744.94
2022-11-18T01:18:28.192Z,99752.94
2022-11-18T01:20:59.934Z,99746.72
2022-11-18T01:23:26.487Z,99757.34
2022-11-18T01:25:53.214Z,99756.53
2022-11-18T01:28:23.541Z,99755.56
2022-11-18T01:30:50.763Z,99759.25
2022-11-18T01:33:17.346Z,99769.03
2022-11-18T01:35:46.679Z,99774.16
2022-11-18T01:38:14.555Z,99782.16
2022-11-18T01:40:41.668Z,99776.91
2022-11-18T01:43:16.768Z,99775.09
2022-11-18T01:45:45.761Z,99785.72
2022-11-18T01:48:20.974Z,99785.72
2022-11-18T01:51:03.075Z,99789.31
2022-11-18T01:53:35.703Z,99787.63
2022-11-18T01:56:07.885Z,99787.63
2022-11-18T01:58:41.656Z,99796.47
2022-11-18T02:01:08.664Z,99793.84
2022-11-18T02:03:36.050Z,99796.47
2022-11-18T02:06:05.068Z,99794.81
2022-11-18T02:08:32.628Z,99799.19
2022-11-18T02:10:59.062Z,99801.94
2022-11-18T02:13:25.919Z,99802.78
2022-11-18T02:16:19.052Z,99804.69
2022-11-18T02:18:56.362Z,99803.00
2022-11-18T02:21:32.250Z,99810.06
2022-11-18T02:24:14.915Z,99805.75
2022-11-18T02:26:59.480Z,99807.63
2022-11-18T02:29:33.204Z,99812.88
2022-11-18T02:32:09.809Z,99812.88
2022-11-18T02:34:40.304Z,99811.25
2022-11-18T02:37:12.362Z,99810.50
2022-11-18T02:39:50.713Z,99818.38
2022-11-18T02:42:17.192Z,99821.94
2022-11-18T02:44:48.361Z,99819.44
2022-11-18T02:47:16.732Z,99823.00
2022-11-18T02:49:52.041Z,99827.44
2022-11-18T02:52:21.025Z,99824.94
2022-11-18T02:54:50.200Z,99818.00
2022-11-18T02:57:22.137Z,99823.38
2022-11-18T02:59:49.164Z,99826.94
2022-11-18T03:02:18.726Z,99834.94
2022-11-18T03:04:51.539Z,99843.63
2022-11-18T03:07:23.767Z,99839.31
2022-11-18T03:09:52.710Z,99845.53
2022-11-18T03:12:32.291Z,99845.53
2022-11-18T03:15:36.039Z,99855.19
2022-11-18T03:18:24.052Z,99854.38
2022-11-18T03:21:03.194Z,99857.94
2022-11-18T03:23:44.920Z,99857.94
2022-11-18T03:26:22.680Z,99867.56
2022-11-18T03:29:06.541Z,99869.38
2022-11-18T03:31:35.926Z,99864.25
2022-11-18T03:34:08.428Z,99868.53
2022-11-18T03:36:40.469Z,99868.63
2022-11-18T03:39:10.011Z,99868.63
2022-11-18T03:41:40.627Z,99869.59
2022-11-18T03:44:13.247Z,99885.34
2022-11-18T03:46:47.400Z,99882.72
2022-11-18T03:49:20.589Z,99887.97
2022-11-18T03:51:53.944Z,99892.47
2022-11-18T03:54:27.891Z,99895.22
2022-11-18T03:57:21.467Z,99897.00
2022-11-18T04:00:07.053Z,99898.91
2022-11-18T04:02:36.788Z,99899.72
2022-11-18T04:05:05.557Z,99903.22
2022-11-18T04:07:39.543Z,99908.53
2022-11-18T04:10:15.227Z,99912.97
2022-11-18T04:12:59.531Z,99905.09
2022-11-18T04:15:31.888Z,99907.72
2022-11-18T04:18:01.236Z,99912.09
2022-11-18T04:20:28.759Z,99917.34
2022-11-18T04:22:55.374Z,99925.13
2022-11-18T04:25:22.033Z,99925.13
2022-11-18T04:27:48.472Z,99928.72
2022-11-18T04:30:14.852Z,99940.88
2022-11-18T04:32:41.287Z,99939.94
2022-11-18T04:35:07.898Z,99942.56
2022-11-18T04:37:34.501Z,99941.72
2022-11-18T04:40:03.275Z,99937.31
2022-11-18T04:42:29.668Z,99945.28
2022-11-18T04:44:56.121Z,99950.44
2022-11-18T04:47:22.692Z,99954.72
2022-11-18T04:49:49.270Z,99953.78
2022-11-18T04:52:16.035Z,99965.00
2022-11-18T04:54:42.409Z,99963.22
2022-11-18T04:57:08.947Z,99955.22
2022-11-18T04:59:35.535Z,99965.63
2022-11-18T05:02:05.317Z,99966.47
2022-11-18T05:04:35.102Z,99966.47
2022-11-18T05:07:03.115Z,99969.84
2022-11-18T05:09:32.068Z,99971.59
2022-11-18T05:12:18.025Z,99977.69
2022-11-18T05:14:51.927Z,99980.09
2022-11-18T05:17:19.094Z,99976.53
2022-11-18T05:19:45.627Z,99985.13
2022-11-18T05:22:12.144Z,99980.72
2022-11-18T05:24:38.712Z,99988.47
2022-11-18T05:27:05.093Z,99984.91
2022-11-18T05:29:31.660Z,99997.09
2022-11-18T05:31:58.249Z,99997.09
2022-11-18T05:34:25.240Z,100005.69
2022-11-18T05:36:51.764Z,100006.53
2022-11-18T05:39:18.616Z,100011.78
2022-11-18T05:42:06.858Z,100016.06
2022-11-18T05:44:33.284Z,100016.19
2022-11-18T05:47:00.282Z,100024.81
2022-11-18T05:49:26.768Z,100019.56
2022-11-18T05:51:53.316Z,100023.00
2022-11-18T05:54:21.686Z,100023.00
2022-11-18T05:56:48.552Z,100022.06
2022-11-18T05:59:15.144Z,100021.25
2022-11-18T06:02:00.317Z,100023.88
2022-11-18T06:04:33.709Z,100031.72
2022-11-18T06:07:08.115Z,100028.38
2022-11-18T06:09:38.810Z,100038.03
2022-11-18T06:12:06.268Z,100039.69
2022-11-18T06:15:00.401Z,100040.56
2022-11-18T06:17:31.877Z,100044.13
2022-11-18T06:19:59.233Z,100044.13
2022-11-18T06:22:26.409Z,100043.28
2022-11-18T06:24:52.802Z,100044.94
2022-11-18T06:27:22.379Z,100049.38
2022-11-18T06:29:48.779Z,100058.19
2022-11-18T06:32:15.212Z,100066.91
2022-11-18T06:34:42.180Z,100076.56
2022-11-18T06:37:16.064Z,100067.00
2022-11-18T06:39:42.494Z,100075.72
2022-11-18T06:42:32.521Z,100078.47
2022-11-18T06:44:59.079Z,100081.91
2022-11-18T06:47:25.689Z,100088.09
2022-11-18T06:49:52.096Z,100095.16
2022-11-18T06:52:18.616Z,100093.47
2022-11-18T06:54:44.989Z,100102.28
2022-11-18T06:57:11.444Z,100109.22
2022-11-18T06:59:37.831Z,100110.16
2022-11-18T07:02:07.050Z,100114.59
2022-11-18T07:04:37.787Z,100111.09
2022-11-18T07:07:06.642Z,100121.59
2022-11-18T07:09:35.122Z,100114.69
2022-11-18T07:12:01.817Z,100120.78
2022-11-18T07:14:28.233Z,100128.75
2022-11-18T07:16:54.715Z,100129.69
2022-11-18T07:19:24.191Z,100132.31
2022-11-18T07:21:53.188Z,100133.25
2022-11-18T07:24:19.519Z,100136.75
2022-11-18T07:26:46.299Z,100146.38
2022-11-18T07:29:12.768Z,100149.00
2022-11-18T07:31:39.872Z,100149.94
2022-11-18T07:34:07.501Z,100150.16
2022-11-18T07:36:35.879Z,100160.13
2022-11-18T07:39:05.043Z,100168.94
2022-11-18T07:41:32.194Z,100173.25
2022-11-18T07:44:02.071Z,100172.50
2022-11-18T07:46:32.614Z,100181.25
2022-11-18T07:49:01.631Z,100181.34
2022-11-18T07:51:31.275Z,100189.22
2022-11-18T07:53:58.180Z,100194.66
2022-11-18T07:56:25.916Z,100192.13
2022-11-18T07:58:54.468Z,100196.53
2022-11-18T08:01:23.840Z,100204.41
2022-11-18T08:03:50.752Z,100210.41
2022-11-18T08:06:19.054Z,100210.41
2022-11-18T08:08:45.711Z,100214.72
2022-11-18T08:11:20.461Z,100224.25
2022-11-18T08:13:48.715Z,100228.66
2022-11-18T08:16:18.088Z,100226.13
2022-11-18T08:18:44.531Z,100227.81
2022-11-18T08:21:11.753Z,100232.97
2022-11-18T08:23:41.927Z,100233.19
2022-11-18T08:26:13.684Z,100233.19
2022-11-18T08:28:41.830Z,100234.75
2022-11-18T08:31:12.441Z,100242.41
2022-11-18T08:33:39.278Z,100248.59
2022-11-18T08:36:12.762Z,100245.03
2022-11-18T08:38:39.231Z,100250.19
2022-11-18T08:41:07.218Z,100245.78
2022-11-18T08:43:35.788Z,100253.84
2022-11-18T08:46:02.238Z,100258.06
2022-11-18T08:48:28.734Z,100256.28
2022-11-18T08:50:55.115Z,100263.94
2022-11-18T08:53:27.563Z,100255.97
2022-11-18T08:55:58.854Z,100261.84
2022-11-18T08:58:37.703Z,100266.28
2022-11-18T09:01:06.357Z,100267.22
2022-11-18T09:03:32.798Z,100270.66
2022-11-18T09:06:26.378Z,100272.69
2022-11-18T09:08:53.674Z,100279.28
2022-11-18T09:11:25.570Z,100288.66
2022-11-18T09:16:43.694Z,100279.72
2022-11-18T09:19:32.012Z,100285.84
2022-11-18T09:21:56.772Z,100291.81
2022-11-18T09:24:23.252Z,100290.88
2022-11-18T09:26:50.025Z,100291.69
2022-11-18T09:29:21.215Z,100298.84
2022-11-18T09:31:50.327Z,100299.56
2022-11-18T09:34:17.083Z,100304.75
2022-11-18T09:36:43.841Z,100307.44
2022-11-18T09:39:10.869Z,100306.41
2022-11-18T09:42:06.513Z,100310.81
2022-11-18T09:45:07.353Z,100310.94
2022-11-18T09:47:36.597Z,100316.91
2022-11-18T09:50:41.638Z,100316.06
2022-11-18T09:53:11.228Z,100322.16
2022-11-18T09:55:39.866Z,100323.84
2022-11-18T09:58:07.531Z,100330.69
2022-11-18T10:00:34.355Z,100338.66
2022-11-18T10:03:04.919Z,100342.31
2022-11-18T10:05:38.048Z,100340.25
2022-11-18T10:08:24.110Z,100344.44
2022-11-18T10:11:07.821Z,100347.41
2022-11-18T10:13:48.527Z,100354.88
2022-11-18T12:46:30.654Z,100443.66
2022-11-18T12:48:57.279Z,100452.50
2022-11-18T12:51:26.628Z,100458.38
2022-11-18T12:53:53.872Z,100453.06
2022-11-18T12:56:29.432Z,100451.03
2022-11-18T12:59:00.324Z,100454.41
2022-11-18T13:01:35.251Z,100457.63
2022-11-18T13:04:12.197Z,100469.59
2022-11-18T13:06:39.691Z,100459.63
2022-11-18T13:09:17.163Z,100467.34
2022-11-18T13:12:10.789Z,100464.59
2022-11-18T13:15:01.584Z,100458.19
2022-11-18T13:17:54.115Z,100468.41
2022-11-18T13:20:38.450Z,100468.19
2022-11-18T13:23:29.735Z,100475.78
2022-11-18T13:26:22.835Z,100472.00
2022-11-18T13:29:22.330Z,100475.16
2022-11-18T13:32:09.748Z,100476.75
2022-11-18T13:34:54.118Z,100484.34
2022-11-18T13:37:24.222Z,100484.22
2022-11-18T13:39:51.495Z,100488.31
2022-11-18T13:42:21.655Z,100489.06
2022-11-18T13:45:03.433Z,100487.16
2022-11-18T13:47:32.777Z,100490.53
2022-11-18T13:50:08.020Z,100500.00
2022-11-18T13:52:45.901Z,100494.63
2022-11-18T13:55:24.414Z,100484.88
2022-11-18T13:58:16.673Z,100493.47
2022-11-18T14:00:56.653Z,100495.16
2022-11-18T14:03:48.578Z,100493.28
2022-11-18T14:06:38.087Z,100494.97
2022-11-18T14:09:30.264Z,100492.13
2022-11-18T14:12:23.923Z,100492.88
2022-11-18T14:14:50.487Z,100486.66
2022-11-18T14:17:30.417Z,100498.84
2022-11-18T14:19:59.189Z,100497.09
2022-11-18T14:22:30.886Z,100496.03
2022-11-18T14:25:18.597Z,100499.38
2022-11-18T14:27:49.225Z,100504.66
2022-11-18T14:30:57.259Z,100511.59
2022-11-18T14:33:31.673Z,100511.59
2022-11-18T14:36:10.457Z,100517.59
2022-11-18T14:39:25.553Z,100515.81
2022-11-18T14:41:50.011Z,100516.63
2022-11-18T14:44:17.729Z,100520.97
2022-11-18T14:46:48.969Z,100525.28
2022-11-18T14:49:22.047Z,100526.09
2022-11-18T14:51:49.709Z,100527.78
2022-11-18T14:54:24.058Z,100529.50
2022-11-18T14:56:54.655Z,100532.22
2022-11-18T14:59:24.130Z,100539.19
2022-11-18T15:01:50.713Z,100540.94
2022-11-18T15:04:18.350Z,100541.06
2022-11-18T15:06:45.354Z,100537.50
2022-11-18T15:09:12.622Z,100542.75
2022-11-18T15:11:39.399Z,100544.44
2022-11-18T15:14:08.314Z,100551.47
2022-11-18T15:16:35.118Z,100546.09
2022-11-18T15:19:04.236Z,100555.81
2022-11-18T15:21:33.434Z,100558.44
2022-11-18T15:24:02.202Z,100560.22
2022-11-18T15:26:35.812Z,100558.53
2022-11-18T15:29:02.234Z,100563.81
2022-11-18T15:31:28.689Z,100571.69
2022-11-18T15:33:55.253Z,100572.63
2022-11-18T15:36:26.758Z,100576.22
2022-11-18T15:38:55.418Z,100572.84
2022-11-18T15:41:23.173Z,100571.16
2022-11-18T15:43:55.298Z,100574.75
2022-11-18T15:46:23.257Z,100572.22
2022-11-18T15:48:54.808Z,100577.59
2022-11-18T15:51:22.165Z,100577.66
2022-11-18T15:53:49.030Z,100572.50
2022-11-18T15:56:24.641Z,100586.53
2022-11-18T15:58:58.702Z,100577.06
2022-11-18T16:01:27.603Z,100579.75
2022-11-18T16:03:54.719Z,100589.44
2022-11-18T16:06:24.847Z,100583.44
2022-11-18T16:08:57.564Z,100580.91
2022-11-18T16:11:45.191Z,100588.91
2022-11-18T16:14:13.187Z,100592.47
2022-11-18T16:16:41.404Z,100597.84
2022-11-18T16:19:10.833Z,100589.97
2022-11-18T16:21:39.695Z,100589.22
2022-11-18T16:24:08.489Z,100598.91
2022-11-18T16:26:38.513Z,100598.16
2022-11-18T16:29:06.440Z,100608.66
2022-11-18T16:31:40.271Z,100603.50
2022-11-18T16:34:17.538Z,100611.50
2022-11-18T16:36:48.402Z,100610.66
2022-11-18T16:39:24.977Z,100612.44
2022-11-18T16:41:59.431Z,100619.50
2022-11-18T16:44:28.905Z,100616.00
2022-11-18T16:46:57.419Z,100616.94
2022-11-18T16:49:26.237Z,100621.38
2022-11-18T16:51:55.001Z,100628.50
2022-11-18T16:54:29.261Z,100627.69
2022-11-18T16:56:57.485Z,100632.94
2022-11-18T16:59:28.943Z,100632.94
2022-11-18T17:01:57.559Z,100629.47
2022-11-18T17:04:25.800Z,100632.09
2022-11-18T17:06:53.279Z,100637.38
2022-11-18T17:09:21.928Z,100646.19
2022-11-18T17:11:49.693Z,100641.75
2022-11-18T17:14:16.580Z,100640.06
2022-11-18T17:16:43.269Z,100641.75
2022-11-18T17:19:14.591Z,100650.59
2022-11-18T17:21:41.786Z,100653.22
2022-11-18T17:24:08.868Z,100656.72
2022-11-18T17:26:35.374Z,100655.03
2022-11-18T17:29:02.059Z,100664.72
2022-11-18T17:31:28.469Z,100661.22
2022-11-18T17:33:56.041Z,100670.91
2022-11-18T17:36:25.298Z,100671.84
2022-11-18T17:38:54.377Z,100677.09
2022-11-18T17:41:41.695Z,100679.72
2022-11-18T17:44:09.810Z,100680.66
2022-11-18T17:46:38.279Z,100689.41
2022-11-18T17:49:07.302Z,100684.16
2022-11-18T17:51:36.716Z,100681.53
2022-11-18T17:54:03.152Z,100691.19
2022-11-18T17:56:29.573Z,100691.19
2022-11-18T17:58:56.047Z,100700.00
2022-11-18T18:01:22.969Z,100700.00
2022-11-18T18:03:51.686Z,100704.31
2022-11-18T18:06:20.929Z,100707.06
2022-11-18T18:08:47.721Z,100708.84
2022-11-18T18:11:16.993Z,100714.94
2022-11-18T18:14:05.118Z,100714.94
2022-11-18T18:16:33.411Z,100721.13
2022-11-18T18:19:01.514Z,100726.50
2022-11-18T18:21:28.413Z,100735.31
2022-11-18T18:23:54.859Z,100730.06
2022-11-18T18:26:26.622Z,100733.63
2022-11-18T18:28:56.235Z,100734.38
2022-11-18T18:31:22.565Z,100735.31
2022-11-18T18:33:52.089Z,100737.94
2022-11-18T18:36:19.689Z,100737.13
2022-11-18T18:38:49.329Z,100747.63
2022-11-18T18:41:18.288Z,100741.72
2022-11-18T18:43:46.072Z,100744.34
2022-11-18T18:46:34.077Z,100741.72
2022-11-18T18:49:06.775Z,100749.59
2022-11-18T18:51:38.353Z,100753.28
2022-11-18T18:54:06.009Z,100740.97
2022-11-18T18:56:33.280Z,100755.91
2022-11-18T18:59:02.790Z,100762.00
2022-11-18T19:01:33.483Z,100762.00
2022-11-18T19:04:02.286Z,100762.97
2022-11-18T19:09:18.542Z,100771.00
2022-11-18T19:12:04.229Z,100773.63
2022-11-18T19:14:32.501Z,100776.38
2022-11-18T19:16:59.848Z,100769.53
2022-11-18T19:19:47.459Z,100778.34
2022-11-18T19:22:15.006Z,100788.84
2022-11-18T19:24:49.758Z,100787.16
2022-11-18T19:27:17.694Z,100792.50
2022-11-18T19:29:47.087Z,100793.53
2022-11-18T19:32:13.857Z,100791.84
2022-11-18T19:34:46.018Z,100805.00
2022-11-18T19:37:12.543Z,100803.31
2022-11-18T19:39:40.289Z,100801.63
2022-11-18T19:42:07.491Z,100813.91
2022-11-18T19:44:33.896Z,100808.75
2022-11-18T19:47:00.399Z,100812.31
2022-11-18T19:49:26.842Z,100823.75
2022-11-18T19:51:53.284Z,100819.38
2022-11-18T19:54:19.793Z,100832.59
2022-11-18T19:56:46.461Z,100831.84
2022-11-18T19:59:13.085Z,100827.50
2022-11-18T20:01:40.282Z,100832.03
2022-11-18T20:04:07.012Z,100839.91
2022-11-18T20:06:35.980Z,100848.81
2022-11-18T20:09:03.465Z,100851.53
2022-11-18T20:11:29.818Z,100844.59
2022-11-18T20:13:56.318Z,100860.38
2022-11-18T20:16:24.762Z,100857.81
2022-11-18T20:19:00.044Z,100870.09
2022-11-18T20:21:28.609Z,100875.47
2022-11-18T20:24:00.386Z,100872.94
2022-11-18T20:26:31.411Z,100880.88
2022-11-18T20:28:58.040Z,100885.38
2022-11-18T20:31:26.006Z,100895.09
2022-11-18T20:33:54.377Z,100890.88
2022-11-18T20:36:26.974Z,100883.91
2022-11-18T20:38:55.256Z,100892.75
2022-11-18T20:41:23.185Z,100892.09
2022-11-18T20:43:50.134Z,100894.81
2022-11-18T20:46:20.911Z,100898.53
2022-11-18T20:48:49.047Z,100903.88
2022-11-18T20:51:19.895Z,100911.06
2022-11-18T20:53:48.340Z,100915.00
2022-11-18T20:56:17.607Z,100914.22
2022-11-18T20:58:45.003Z,100911.59
2022-11-18T21:01:12.486Z,100908.22
2022-11-18T21:03:39.773Z,100915.34
2022-11-18T21:06:16.116Z,100914.47
2022-11-18T21:08:42.914Z,100914.66
2022-11-18T21:11:11.826Z,100916.63
2022-11-18T21:13:58.012Z,100921.13
2022-11-18T21:16:26.085Z,100922.13
2022-11-18T21:18:53.128Z,100928.41
2022-11-18T21:21:38.084Z,100927.53
2022-11-18T21:24:04.836Z,100924.09
2022-11-18T21:26:33.217Z,100930.34
2022-11-18T21:29:02.055Z,100931.38
2022-11-18T21:31:29.594Z,100925.34
2022-11-18T21:33:57.018Z,100936.78
2022-11-18T21:36:25.253Z,100937.72
2022-11-18T21:38:52.023Z,100944.81
2022-11-18T21:41:18.984Z,100949.38
2022-11-18T21:46:31.986Z,100956.50
2022-11-18T21:49:00.243Z,100960.06
2022-11-18T21:51:27.252Z,100955.84
2022-11-18T21:53:54.047Z,100965.66
2022-11-18T21:56:25.520Z,100970.97
2022-11-18T21:58:52.950Z,100973.66
2022-11-18T22:01:24.665Z,100978.16
2022-11-18T22:03:55.497Z,100973.94
2022-11-18T22:06:24.521Z,100983.56
2022-11-18T22:08:51.818Z,100983.66
2022-11-18T22:11:22.594Z,100989.81
2022-11-18T22:13:51.038Z,100989.81
2022-11-18T22:16:19.681Z,101000.50
2022-11-18T22:18:53.099Z,101010.97
2022-11-18T22:21:23.073Z,101007.59
2022-11-18T22:23:49.678Z,101004.13
2022-11-18T22:26:18.311Z,101005.22
2022-11-18T22:28:46.055Z,101012.31
2022-11-18T22:31:23.306Z,101009.78
2022-11-18T22:33:51.351Z,101013.31
2022-11-18T22:36:19.990Z,101008.25
2022-11-18T22:38:46.637Z,101011.78
2022-11-18T22:41:37.412Z,101006.63
2022-11-18T22:44:07.623Z,101011.09
2022-11-18T22:46:38.048Z,101006.78
2022-11-18T22:49:05.422Z,101013.94
2022-11-18T22:51:32.495Z,101017.53
2022-11-18T22:56:45.497Z,101026.44
2022-11-18T22:59:12.735Z,101023.81
2022-11-18T23:01:39.530Z,101016.13
2022-11-18T23:04:06.736Z,101017.13
2022-11-18T23:06:33.174Z,101025.00
2022-11-18T23:08:59.635Z,101023.56
2022-11-18T23:11:44.763Z,101030.56
2022-11-18T23:14:11.435Z,101037.56
2022-11-18T23:16:40.518Z,101031.47
2022-11-18T23:19:10.085Z,101032.41
2022-11-18T23:21:36.719Z,101045.56
2022-11-18T23:24:03.599Z,101046.53
2022-11-18T23:26:30.445Z,101039.59
2022-11-18T23:28:56.979Z,101046.66
2022-11-18T23:31:25.280Z,101050.22
2022-11-18T23:33:53.722Z,101048.59
2022-11-18T23:36:20.910Z,101060.84
2022-11-18T23:38:48.019Z,101057.44
2022-11-18T23:41:16.763Z,101058.44
2022-11-18T23:43:48.310Z,101066.41
2022-11-18T23:46:16.950Z,101066.47
2022-11-18T23:48:46.925Z,101069.09
2022-11-18T23:51:18.487Z,101071.81
2022-11-18T23:53:47.836Z,101069.19
2022-11-18T23:56:16.567Z,101076.25
2022-11-18T23:58:50.541Z,101073.63
